Weather at Annisse flyveplads

Public forecast

Using degrees Celsius for public forecast. Weather courtesy of forecast.io.

Closest aviation weather report (METAR) to Annisse flyveplads

Closest report is Copenhagen Roskilde Airport, 24.1 nm (44.7 km) S.

2024/05/26 20:20 (retrieved 19 minutes ago)

EKRK 262020Z AUTO 10006KT 9999 SCT180/// 15/13 Q1017

Closest aviation forecast (TAF) to Annisse flyveplads

Closest forecast is Copenhagen Kastrup Airport, 26.6 nm (49.2 km) SE.

2024/05/26 18:31 (retrieved 2 hours ago)

TAF EKCH 261701Z 2618/2718 12010KT 9999 FEW030 TEMPO 2618/2624 SCT030CB TEMPO 2703/2706 2000 BR BKN004 BECMG 2706/2709 18008KT TEMPO 2706/2715 4000 TSRA BKN012 SCT020CB